sensor_id;sensor_type;location;lat;lon;timestamp;P1;durP1;ratioP1;P2;durP2;ratioP2
70725;SDS011;58304;53.104;6.022;2022-11-02T00:00:41;5.65;;;1.08;;
70725;SDS011;58304;53.104;6.022;2022-11-02T00:03:08;6.63;;;1.20;;
70725;SDS011;58304;53.104;6.022;2022-11-02T00:05:33;11.80;;;1.35;;
70725;SDS011;58304;53.104;6.022;2022-11-02T00:07:59;5.65;;;1.10;;
70725;SDS011;58304;53.104;6.022;2022-11-02T00:10:25;7.93;;;1.27;;
70725;SDS011;58304;53.104;6.022;2022-11-02T00:12:51;8.48;;;1.17;;
70725;SDS011;58304;53.104;6.022;2022-11-02T00:15:17;5.00;;;1.42;;
70725;SDS011;58304;53.104;6.022;2022-11-02T00:17:44;6.50;;;1.38;;
70725;SDS011;58304;53.104;6.022;2022-11-02T00:20:13;6.70;;;1.40;;
70725;SDS011;58304;53.104;6.022;2022-11-02T00:22:40;9.65;;;1.42;;
70725;SDS011;58304;53.104;6.022;2022-11-02T00:25:07;5.93;;;1.10;;
70725;SDS011;58304;53.104;6.022;2022-11-02T00:27:36;7.35;;;1.23;;
70725;SDS011;58304;53.104;6.022;2022-11-02T00:30:02;3.90;;;0.95;;
70725;SDS011;58304;53.104;6.022;2022-11-02T00:32:28;7.05;;;1.20;;
70725;SDS011;58304;53.104;6.022;2022-11-02T00:34:54;6.95;;;0.90;;
70725;SDS011;58304;53.104;6.022;2022-11-02T00:37:19;3.50;;;1.30;;
70725;SDS011;58304;53.104;6.022;2022-11-02T00:39:45;5.45;;;1.15;;
70725;SDS011;58304;53.104;6.022;2022-11-02T00:42:11;4.43;;;1.15;;
70725;SDS011;58304;53.104;6.022;2022-11-02T00:44:36;5.72;;;0.90;;
70725;SDS011;58304;53.104;6.022;2022-11-02T00:47:02;4.38;;;1.13;;
70725;SDS011;58304;53.104;6.022;2022-11-02T00:49:27;3.35;;;0.90;;
70725;SDS011;58304;53.104;6.022;2022-11-02T00:51:53;5.65;;;1.17;;
70725;SDS011;58304;53.104;6.022;2022-11-02T00:54:18;3.00;;;0.80;;
70725;SDS011;58304;53.104;6.022;2022-11-02T00:56:44;6.10;;;1.08;;
70725;SDS011;58304;53.104;6.022;2022-11-02T00:59:10;5.32;;;1.00;;
70725;SDS011;58304;53.104;6.022;2022-11-02T01:01:35;4.15;;;0.82;;
70725;SDS011;58304;53.104;6.022;2022-11-02T01:04:01;3.38;;;0.80;;
70725;SDS011;58304;53.104;6.022;2022-11-02T01:06:27;3.33;;;0.95;;
70725;SDS011;58304;53.104;6.022;2022-11-02T01:08:52;2.83;;;0.70;;
70725;SDS011;58304;53.104;6.022;2022-11-02T01:11:19;3.65;;;0.80;;
70725;SDS011;58304;53.104;6.022;2022-11-02T01:13:46;3.58;;;0.93;;
70725;SDS011;58304;53.104;6.022;2022-11-02T01:16:14;4.35;;;1.48;;
70725;SDS011;58304;53.104;6.022;2022-11-02T01:18:39;3.20;;;0.77;;
70725;SDS011;58304;53.104;6.022;2022-11-02T01:21:06;3.70;;;0.70;;
70725;SDS011;58304;53.104;6.022;2022-11-02T01:23:33;2.72;;;0.80;;
70725;SDS011;58304;53.104;6.022;2022-11-02T01:26:04;4.85;;;0.65;;
70725;SDS011;58304;53.104;6.022;2022-11-02T01:28:31;3.00;;;0.70;;
70725;SDS011;58304;53.104;6.022;2022-11-02T01:30:57;2.63;;;0.60;;
70725;SDS011;58304;53.104;6.022;2022-11-02T01:33:23;3.50;;;0.80;;
70725;SDS011;58304;53.104;6.022;2022-11-02T01:35:50;5.72;;;0.68;;
70725;SDS011;58304;53.104;6.022;2022-11-02T01:38:15;5.00;;;0.80;;
70725;SDS011;58304;53.104;6.022;2022-11-02T01:40:41;4.03;;;0.90;;
70725;SDS011;58304;53.104;6.022;2022-11-02T01:43:17;3.00;;;0.60;;
70725;SDS011;58304;53.104;6.022;2022-11-02T01:45:48;5.22;;;0.90;;
70725;SDS011;58304;53.104;6.022;2022-11-02T01:48:17;6.93;;;0.98;;
70725;SDS011;58304;53.104;6.022;2022-11-02T01:50:45;4.32;;;1.00;;
70725;SDS011;58304;53.104;6.022;2022-11-02T01:53:11;3.83;;;0.73;;
70725;SDS011;58304;53.104;6.022;2022-11-02T01:55:37;2.28;;;0.63;;
70725;SDS011;58304;53.104;6.022;2022-11-02T01:58:05;2.60;;;0.60;;
70725;SDS011;58304;53.104;6.022;2022-11-02T02:00:34;2.50;;;0.55;;
70725;SDS011;58304;53.104;6.022;2022-11-02T02:03:11;3.97;;;0.82;;
70725;SDS011;58304;53.104;6.022;2022-11-02T02:05:43;1.52;;;0.60;;
70725;SDS011;58304;53.104;6.022;2022-11-02T02:08:12;3.20;;;0.80;;
70725;SDS011;58304;53.104;6.022;2022-11-02T02:10:41;2.65;;;0.63;;
70725;SDS011;58304;53.104;6.022;2022-11-02T02:13:06;1.98;;;0.70;;
70725;SDS011;58304;53.104;6.022;2022-11-02T02:16:07;3.08;;;0.90;;
70725;SDS011;58304;53.104;6.022;2022-11-02T02:18:40;2.50;;;0.80;;
70725;SDS011;58304;53.104;6.022;2022-11-02T02:23:57;1.98;;;0.75;;
70725;SDS011;58304;53.104;6.022;2022-11-02T02:29:50;4.90;;;0.90;;
70725;SDS011;58304;53.104;6.022;2022-11-02T02:35:40;2.60;;;1.00;;
70725;SDS011;58304;53.104;6.022;2022-11-02T02:38:10;4.32;;;0.98;;
70725;SDS011;58304;53.104;6.022;2022-11-02T02:40:44;2.80;;;0.90;;
70725;SDS011;58304;53.104;6.022;2022-11-02T02:43:20;1.83;;;0.68;;
70725;SDS011;58304;53.104;6.022;2022-11-02T02:46:04;2.92;;;0.73;;
70725;SDS011;58304;53.104;6.022;2022-11-02T02:48:33;3.00;;;0.77;;
70725;SDS011;58304;53.104;6.022;2022-11-02T02:51:03;3.45;;;0.73;;
70725;SDS011;58304;53.104;6.022;2022-11-02T02:53:32;2.05;;;0.55;;
70725;SDS011;58304;53.104;6.022;2022-11-02T02:56:03;3.22;;;0.65;;
70725;SDS011;58304;53.104;6.022;2022-11-02T02:58:31;2.70;;;0.73;;
70725;SDS011;58304;53.104;6.022;2022-11-02T03:01:10;2.05;;;0.50;;
70725;SDS011;58304;53.104;6.022;2022-11-02T03:03:38;3.55;;;0.60;;
70725;SDS011;58304;53.104;6.022;2022-11-02T03:06:40;1.92;;;0.35;;
70725;SDS011;58304;53.104;6.022;2022-11-02T03:11:40;3.80;;;0.55;;
70725;SDS011;58304;53.104;6.022;2022-11-02T03:17:19;3.28;;;0.60;;
70725;SDS011;58304;53.104;6.022;2022-11-02T03:19:53;4.28;;;0.77;;
70725;SDS011;58304;53.104;6.022;2022-11-02T03:25:29;3.28;;;0.80;;
70725;SDS011;58304;53.104;6.022;2022-11-02T03:28:17;3.28;;;0.60;;
70725;SDS011;58304;53.104;6.022;2022-11-02T03:31:06;4.05;;;0.70;;
70725;SDS011;58304;53.104;6.022;2022-11-02T03:33:36;1.98;;;0.50;;
70725;SDS011;58304;53.104;6.022;2022-11-02T03:36:12;4.13;;;0.70;;
70725;SDS011;58304;53.104;6.022;2022-11-02T03:41:24;5.43;;;0.80;;
70725;SDS011;58304;53.104;6.022;2022-11-02T03:43:54;5.75;;;1.02;;
70725;SDS011;58304;53.104;6.022;2022-11-02T03:46:27;5.32;;;1.10;;
70725;SDS011;58304;53.104;6.022;2022-11-02T03:48:58;6.53;;;0.70;;
70725;SDS011;58304;53.104;6.022;2022-11-02T03:51:26;6.10;;;1.17;;
70725;SDS011;58304;53.104;6.022;2022-11-02T03:54:00;6.85;;;1.02;;
70725;SDS011;58304;53.104;6.022;2022-11-02T03:56:50;9.02;;;0.80;;
70725;SDS011;58304;53.104;6.022;2022-11-02T03:59:20;7.82;;;0.88;;
70725;SDS011;58304;53.104;6.022;2022-11-02T04:01:47;4.28;;;0.70;;
70725;SDS011;58304;53.104;6.022;2022-11-02T04:04:15;3.20;;;0.82;;
70725;SDS011;58304;53.104;6.022;2022-11-02T04:06:42;3.30;;;0.80;;
70725;SDS011;58304;53.104;6.022;2022-11-02T04:09:10;7.13;;;1.10;;
70725;SDS011;58304;53.104;6.022;2022-11-02T04:11:37;9.32;;;1.25;;
70725;SDS011;58304;53.104;6.022;2022-11-02T04:14:21;6.82;;;1.10;;
70725;SDS011;58304;53.104;6.022;2022-11-02T04:17:02;9.13;;;1.10;;
70725;SDS011;58304;53.104;6.022;2022-11-02T04:19:46;6.32;;;1.02;;
70725;SDS011;58304;53.104;6.022;2022-11-02T04:24:57;7.13;;;0.90;;
70725;SDS011;58304;53.104;6.022;2022-11-02T04:27:42;5.95;;;0.77;;
70725;SDS011;58304;53.104;6.022;2022-11-02T04:30:12;5.22;;;0.80;;
70725;SDS011;58304;53.104;6.022;2022-11-02T04:32:45;5.20;;;1.02;;
70725;SDS011;58304;53.104;6.022;2022-11-02T04:35:31;6.50;;;0.82;;
70725;SDS011;58304;53.104;6.022;2022-11-02T04:37:57;7.25;;;1.02;;
70725;SDS011;58304;53.104;6.022;2022-11-02T04:40:42;9.75;;;1.15;;
70725;SDS011;58304;53.104;6.022;2022-11-02T04:43:08;7.45;;;1.30;;
70725;SDS011;58304;53.104;6.022;2022-11-02T04:45:34;7.70;;;1.20;;
70725;SDS011;58304;53.104;6.022;2022-11-02T04:48:04;6.45;;;1.00;;
70725;SDS011;58304;53.104;6.022;2022-11-02T04:50:33;7.97;;;1.10;;
70725;SDS011;58304;53.104;6.022;2022-11-02T04:53:00;4.32;;;0.90;;
70725;SDS011;58304;53.104;6.022;2022-11-02T04:55:27;7.90;;;1.40;;
70725;SDS011;58304;53.104;6.022;2022-11-02T04:57:53;7.32;;;1.08;;
70725;SDS011;58304;53.104;6.022;2022-11-02T05:00:20;5.43;;;1.45;;
70725;SDS011;58304;53.104;6.022;2022-11-02T05:02:49;4.78;;;1.10;;
70725;SDS011;58304;53.104;6.022;2022-11-02T05:05:15;6.82;;;1.13;;
70725;SDS011;58304;53.104;6.022;2022-11-02T05:07:42;8.07;;;1.27;;
70725;SDS011;58304;53.104;6.022;2022-11-02T05:10:08;4.50;;;1.10;;
70725;SDS011;58304;53.104;6.022;2022-11-02T05:12:34;8.15;;;1.13;;
70725;SDS011;58304;53.104;6.022;2022-11-02T05:15:00;4.72;;;1.10;;
70725;SDS011;58304;53.104;6.022;2022-11-02T05:17:26;7.55;;;1.23;;
70725;SDS011;58304;53.104;6.022;2022-11-02T05:19:51;4.05;;;1.08;;
70725;SDS011;58304;53.104;6.022;2022-11-02T05:22:19;5.80;;;1.10;;
70725;SDS011;58304;53.104;6.022;2022-11-02T05:24:47;7.03;;;1.10;;
70725;SDS011;58304;53.104;6.022;2022-11-02T05:27:13;5.35;;;1.27;;
70725;SDS011;58304;53.104;6.022;2022-11-02T05:29:39;6.50;;;1.30;;
70725;SDS011;58304;53.104;6.022;2022-11-02T05:34:30;3.25;;;0.98;;
70725;SDS011;58304;53.104;6.022;2022-11-02T05:39:21;7.47;;;0.98;;
70725;SDS011;58304;53.104;6.022;2022-11-02T05:41:46;6.85;;;0.80;;
70725;SDS011;58304;53.104;6.022;2022-11-02T05:46:38;4.70;;;1.08;;
70725;SDS011;58304;53.104;6.022;2022-11-02T05:51:29;9.40;;;1.35;;
70725;SDS011;58304;53.104;6.022;2022-11-02T05:56:20;7.90;;;1.17;;
70725;SDS011;58304;53.104;6.022;2022-11-02T05:58:45;6.88;;;1.02;;
70725;SDS011;58304;53.104;6.022;2022-11-02T06:01:11;7.72;;;1.00;;
70725;SDS011;58304;53.104;6.022;2022-11-02T06:06:03;6.15;;;1.00;;
70725;SDS011;58304;53.104;6.022;2022-11-02T06:08:33;6.90;;;1.10;;
70725;SDS011;58304;53.104;6.022;2022-11-02T06:11:04;10.13;;;1.15;;
70725;SDS011;58304;53.104;6.022;2022-11-02T06:13:33;8.93;;;1.30;;
70725;SDS011;58304;53.104;6.022;2022-11-02T06:16:00;5.22;;;0.98;;
70725;SDS011;58304;53.104;6.022;2022-11-02T06:18:26;9.88;;;1.52;;
70725;SDS011;58304;53.104;6.022;2022-11-02T06:20:52;8.65;;;1.77;;
70725;SDS011;58304;53.104;6.022;2022-11-02T06:23:20;6.45;;;1.00;;
70725;SDS011;58304;53.104;6.022;2022-11-02T06:25:50;5.20;;;1.00;;
70725;SDS011;58304;53.104;6.022;2022-11-02T06:28:16;6.50;;;1.13;;
70725;SDS011;58304;53.104;6.022;2022-11-02T06:30:42;7.20;;;1.23;;
70725;SDS011;58304;53.104;6.022;2022-11-02T06:33:08;4.13;;;0.75;;
70725;SDS011;58304;53.104;6.022;2022-11-02T06:35:33;7.32;;;0.90;;
70725;SDS011;58304;53.104;6.022;2022-11-02T06:37:59;4.97;;;0.75;;
70725;SDS011;58304;53.104;6.022;2022-11-02T06:40:25;6.60;;;0.77;;
70725;SDS011;58304;53.104;6.022;2022-11-02T06:42:54;6.95;;;0.93;;
70725;SDS011;58304;53.104;6.022;2022-11-02T06:45:20;3.53;;;0.80;;
70725;SDS011;58304;53.104;6.022;2022-11-02T06:47:46;7.60;;;0.90;;
70725;SDS011;58304;53.104;6.022;2022-11-02T06:50:12;4.38;;;0.90;;
70725;SDS011;58304;53.104;6.022;2022-11-02T06:52:45;3.00;;;0.70;;
70725;SDS011;58304;53.104;6.022;2022-11-02T06:55:12;5.53;;;0.60;;
70725;SDS011;58304;53.104;6.022;2022-11-02T06:57:39;2.90;;;0.60;;
70725;SDS011;58304;53.104;6.022;2022-11-02T07:00:06;3.25;;;0.55;;
70725;SDS011;58304;53.104;6.022;2022-11-02T07:02:33;4.47;;;0.90;;
70725;SDS011;58304;53.104;6.022;2022-11-02T07:04:59;4.05;;;0.70;;
70725;SDS011;58304;53.104;6.022;2022-11-02T07:07:26;4.47;;;0.73;;
70725;SDS011;58304;53.104;6.022;2022-11-02T07:09:52;3.90;;;0.50;;
70725;SDS011;58304;53.104;6.022;2022-11-02T07:12:17;5.68;;;0.60;;
70725;SDS011;58304;53.104;6.022;2022-11-02T07:14:44;1.55;;;0.60;;
70725;SDS011;58304;53.104;6.022;2022-11-02T07:17:10;3.80;;;0.77;;
70725;SDS011;58304;53.104;6.022;2022-11-02T07:19:36;3.42;;;0.70;;
70725;SDS011;58304;53.104;6.022;2022-11-02T07:22:01;4.28;;;0.68;;
70725;SDS011;58304;53.104;6.022;2022-11-02T07:24:27;5.28;;;0.82;;
70725;SDS011;58304;53.104;6.022;2022-11-02T07:29:18;13.35;;;1.10;;
70725;SDS011;58304;53.104;6.022;2022-11-02T07:34:10;5.50;;;0.77;;
70725;SDS011;58304;53.104;6.022;2022-11-02T07:36:36;3.85;;;0.70;;
70725;SDS011;58304;53.104;6.022;2022-11-02T07:39:02;5.13;;;1.00;;
70725;SDS011;58304;53.104;6.022;2022-11-02T07:43:53;4.90;;;1.00;;
70725;SDS011;58304;53.104;6.022;2022-11-02T07:46:19;3.03;;;0.68;;
70725;SDS011;58304;53.104;6.022;2022-11-02T07:48:45;2.92;;;0.75;;
70725;SDS011;58304;53.104;6.022;2022-11-02T07:51:11;5.28;;;0.90;;
70725;SDS011;58304;53.104;6.022;2022-11-02T07:53:37;4.18;;;0.80;;
70725;SDS011;58304;53.104;6.022;2022-11-02T07:56:03;3.80;;;0.80;;
70725;SDS011;58304;53.104;6.022;2022-11-02T07:58:29;7.13;;;1.23;;
70725;SDS011;58304;53.104;6.022;2022-11-02T08:00:59;6.15;;;0.90;;
70725;SDS011;58304;53.104;6.022;2022-11-02T08:03:26;13.32;;;1.10;;
70725;SDS011;58304;53.104;6.022;2022-11-02T08:05:52;8.00;;;1.00;;
70725;SDS011;58304;53.104;6.022;2022-11-02T08:08:18;4.00;;;0.68;;
70725;SDS011;58304;53.104;6.022;2022-11-02T08:10:46;2.70;;;0.60;;
70725;SDS011;58304;53.104;6.022;2022-11-02T08:13:14;9.05;;;0.82;;
70725;SDS011;58304;53.104;6.022;2022-11-02T08:15:43;9.15;;;1.35;;
70725;SDS011;58304;53.104;6.022;2022-11-02T08:18:14;4.10;;;1.02;;
70725;SDS011;58304;53.104;6.022;2022-11-02T08:20:40;9.20;;;1.17;;
70725;SDS011;58304;53.104;6.022;2022-11-02T08:23:08;5.38;;;1.00;;
70725;SDS011;58304;53.104;6.022;2022-11-02T08:25:35;6.07;;;0.82;;
70725;SDS011;58304;53.104;6.022;2022-11-02T08:28:02;6.35;;;0.90;;
70725;SDS011;58304;53.104;6.022;2022-11-02T08:30:28;8.80;;;1.10;;
70725;SDS011;58304;53.104;6.022;2022-11-02T08:33:03;6.72;;;0.88;;
70725;SDS011;58304;53.104;6.022;2022-11-02T08:35:30;8.20;;;1.30;;
70725;SDS011;58304;53.104;6.022;2022-11-02T08:37:56;9.43;;;1.02;;
70725;SDS011;58304;53.104;6.022;2022-11-02T08:40:24;6.95;;;1.05;;
70725;SDS011;58304;53.104;6.022;2022-11-02T08:43:00;11.55;;;1.20;;
70725;SDS011;58304;53.104;6.022;2022-11-02T08:45:28;4.25;;;0.70;;
70725;SDS011;58304;53.104;6.022;2022-11-02T08:47:55;6.45;;;0.90;;
70725;SDS011;58304;53.104;6.022;2022-11-02T08:50:24;5.68;;;0.90;;
70725;SDS011;58304;53.104;6.022;2022-11-02T08:52:50;7.47;;;1.05;;
70725;SDS011;58304;53.104;6.022;2022-11-02T08:55:16;8.10;;;1.00;;
70725;SDS011;58304;53.104;6.022;2022-11-02T08:57:45;5.32;;;1.00;;
70725;SDS011;58304;53.104;6.022;2022-11-02T09:00:12;11.60;;;1.20;;
70725;SDS011;58304;53.104;6.022;2022-11-02T09:02:39;5.95;;;0.95;;
70725;SDS011;58304;53.104;6.022;2022-11-02T09:05:05;7.53;;;1.13;;
70725;SDS011;58304;53.104;6.022;2022-11-02T09:07:30;7.15;;;1.02;;
70725;SDS011;58304;53.104;6.022;2022-11-02T09:09:56;7.90;;;1.33;;
70725;SDS011;58304;53.104;6.022;2022-11-02T09:12:22;13.43;;;1.17;;
70725;SDS011;58304;53.104;6.022;2022-11-02T09:14:47;8.00;;;0.98;;
70725;SDS011;58304;53.104;6.022;2022-11-02T09:17:13;6.82;;;1.10;;
70725;SDS011;58304;53.104;6.022;2022-11-02T09:19:38;5.38;;;1.10;;
70725;SDS011;58304;53.104;6.022;2022-11-02T09:22:04;6.65;;;1.05;;
70725;SDS011;58304;53.104;6.022;2022-11-02T09:24:30;6.63;;;0.90;;
70725;SDS011;58304;53.104;6.022;2022-11-02T09:26:55;5.95;;;1.25;;
70725;SDS011;58304;53.104;6.022;2022-11-02T09:29:21;7.28;;;0.93;;
70725;SDS011;58304;53.104;6.022;2022-11-02T09:31:47;6.57;;;1.10;;
70725;SDS011;58304;53.104;6.022;2022-11-02T09:34:14;3.88;;;1.00;;
70725;SDS011;58304;53.104;6.022;2022-11-02T09:36:40;6.45;;;1.10;;
70725;SDS011;58304;53.104;6.022;2022-11-02T09:39:06;6.53;;;1.20;;
70725;SDS011;58304;53.104;6.022;2022-11-02T09:41:32;7.35;;;1.20;;
70725;SDS011;58304;53.104;6.022;2022-11-02T09:46:46;5.35;;;0.93;;
70725;SDS011;58304;53.104;6.022;2022-11-02T09:51:38;6.63;;;1.17;;
70725;SDS011;58304;53.104;6.022;2022-11-02T09:56:58;7.78;;;1.40;;
70725;SDS011;58304;53.104;6.022;2022-11-02T09:59:28;7.72;;;0.85;;
70725;SDS011;58304;53.104;6.022;2022-11-02T10:07:33;7.22;;;0.93;;
70725;SDS011;58304;53.104;6.022;2022-11-02T10:10:23;6.43;;;1.17;;
70725;SDS011;58304;53.104;6.022;2022-11-02T10:18:22;6.93;;;1.10;;
70725;SDS011;58304;53.104;6.022;2022-11-02T10:20:56;4.70;;;0.95;;
70725;SDS011;58304;53.104;6.022;2022-11-02T10:23:27;6.55;;;0.90;;
70725;SDS011;58304;53.104;6.022;2022-11-02T10:25:57;8.38;;;0.80;;
70725;SDS011;58304;53.104;6.022;2022-11-02T10:28:26;4.95;;;0.88;;
70725;SDS011;58304;53.104;6.022;2022-11-02T10:30:55;4.75;;;0.90;;
70725;SDS011;58304;53.104;6.022;2022-11-02T10:33:25;6.07;;;0.90;;
70725;SDS011;58304;53.104;6.022;2022-11-02T10:38:33;4.75;;;0.98;;
70725;SDS011;58304;53.104;6.022;2022-11-02T10:44:21;5.15;;;0.98;;
70725;SDS011;58304;53.104;6.022;2022-11-02T10:47:07;5.28;;;0.80;;
70725;SDS011;58304;53.104;6.022;2022-11-02T10:52:05;4.20;;;0.77;;
70725;SDS011;58304;53.104;6.022;2022-11-02T10:54:30;5.90;;;1.00;;
70725;SDS011;58304;53.104;6.022;2022-11-02T10:56:57;6.32;;;0.90;;
70725;SDS011;58304;53.104;6.022;2022-11-02T10:59:23;7.68;;;1.10;;
70725;SDS011;58304;53.104;6.022;2022-11-02T11:04:25;5.40;;;0.93;;
70725;SDS011;58304;53.104;6.022;2022-11-02T11:06:54;3.55;;;0.75;;
70725;SDS011;58304;53.104;6.022;2022-11-02T11:11:53;4.22;;;0.93;;
70725;SDS011;58304;53.104;6.022;2022-11-02T11:14:22;4.88;;;0.70;;
70725;SDS011;58304;53.104;6.022;2022-11-02T11:16:50;3.05;;;0.60;;
70725;SDS011;58304;53.104;6.022;2022-11-02T11:21:53;4.15;;;0.80;;
70725;SDS011;58304;53.104;6.022;2022-11-02T11:29:49;5.03;;;0.85;;
70725;SDS011;58304;53.104;6.022;2022-11-02T11:32:21;5.35;;;0.68;;
70725;SDS011;58304;53.104;6.022;2022-11-02T11:34:56;2.85;;;0.60;;
70725;SDS011;58304;53.104;6.022;2022-11-02T11:37:27;3.90;;;0.60;;
70725;SDS011;58304;53.104;6.022;2022-11-02T11:39:57;3.22;;;0.60;;
70725;SDS011;58304;53.104;6.022;2022-11-02T11:42:33;3.40;;;0.70;;
70725;SDS011;58304;53.104;6.022;2022-11-02T11:45:07;4.97;;;0.70;;
70725;SDS011;58304;53.104;6.022;2022-11-02T11:47:50;5.40;;;0.93;;
70725;SDS011;58304;53.104;6.022;2022-11-02T11:50:18;5.40;;;0.60;;
70725;SDS011;58304;53.104;6.022;2022-11-02T11:52:44;3.95;;;0.70;;
70725;SDS011;58304;53.104;6.022;2022-11-02T11:55:23;5.45;;;0.90;;
70725;SDS011;58304;53.104;6.022;2022-11-02T12:00:40;5.45;;;0.85;;
70725;SDS011;58304;53.104;6.022;2022-11-02T12:03:07;7.10;;;0.80;;
70725;SDS011;58304;53.104;6.022;2022-11-02T12:10:59;4.47;;;0.67;;
70725;SDS011;58304;53.104;6.022;2022-11-02T12:16:15;3.70;;;0.68;;
70725;SDS011;58304;53.104;6.022;2022-11-02T12:18:59;4.47;;;0.68;;
70725;SDS011;58304;53.104;6.022;2022-11-02T12:25:14;5.70;;;1.27;;
70725;SDS011;58304;53.104;6.022;2022-11-02T12:39:34;3.58;;;0.80;;
70725;SDS011;58304;53.104;6.022;2022-11-02T12:42:30;2.80;;;0.63;;
70725;SDS011;58304;53.104;6.022;2022-11-02T12:47:54;4.03;;;0.65;;
70725;SDS011;58304;53.104;6.022;2022-11-02T12:53:17;8.10;;;1.05;;
70725;SDS011;58304;53.104;6.022;2022-11-02T12:56:01;5.55;;;0.80;;
70725;SDS011;58304;53.104;6.022;2022-11-02T12:58:30;6.20;;;0.85;;
70725;SDS011;58304;53.104;6.022;2022-11-02T13:06:14;3.90;;;0.82;;
70725;SDS011;58304;53.104;6.022;2022-11-02T13:14:03;10.07;;;0.85;;
70725;SDS011;58304;53.104;6.022;2022-11-02T13:16:38;6.32;;;0.98;;
70725;SDS011;58304;53.104;6.022;2022-11-02T13:19:18;4.18;;;0.77;;
70725;SDS011;58304;53.104;6.022;2022-11-02T13:21:51;4.07;;;0.90;;
70725;SDS011;58304;53.104;6.022;2022-11-02T13:24:21;8.82;;;0.75;;
70725;SDS011;58304;53.104;6.022;2022-11-02T13:26:51;5.53;;;0.90;;
70725;SDS011;58304;53.104;6.022;2022-11-02T13:34:56;3.08;;;0.77;;
70725;SDS011;58304;53.104;6.022;2022-11-02T13:37:32;4.47;;;0.98;;
70725;SDS011;58304;53.104;6.022;2022-11-02T13:40:04;6.10;;;0.82;;
70725;SDS011;58304;53.104;6.022;2022-11-02T13:48:49;3.42;;;0.63;;
70725;SDS011;58304;53.104;6.022;2022-11-02T13:51:22;5.65;;;0.90;;
70725;SDS011;58304;53.104;6.022;2022-11-02T13:54:25;5.03;;;0.75;;
70725;SDS011;58304;53.104;6.022;2022-11-02T13:56:55;5.97;;;1.00;;
70725;SDS011;58304;53.104;6.022;2022-11-02T13:59:24;5.97;;;0.75;;
70725;SDS011;58304;53.104;6.022;2022-11-02T14:01:54;8.05;;;1.55;;
70725;SDS011;58304;53.104;6.022;2022-11-02T14:04:21;4.05;;;0.80;;
70725;SDS011;58304;53.104;6.022;2022-11-02T14:06:58;4.97;;;0.60;;
70725;SDS011;58304;53.104;6.022;2022-11-02T14:09:34;6.50;;;0.93;;
70725;SDS011;58304;53.104;6.022;2022-11-02T14:12:10;7.07;;;1.35;;
70725;SDS011;58304;53.104;6.022;2022-11-02T14:28:40;5.55;;;0.70;;
70725;SDS011;58304;53.104;6.022;2022-11-02T14:39:25;2.92;;;0.60;;
70725;SDS011;58304;53.104;6.022;2022-11-02T14:42:04;7.78;;;1.33;;
70725;SDS011;58304;53.104;6.022;2022-11-02T14:44:56;5.50;;;0.77;;
70725;SDS011;58304;53.104;6.022;2022-11-02T14:47:36;4.75;;;0.60;;
70725;SDS011;58304;53.104;6.022;2022-11-02T14:52:35;7.95;;;0.65;;
70725;SDS011;58304;53.104;6.022;2022-11-02T14:55:05;4.13;;;0.80;;
70725;SDS011;58304;53.104;6.022;2022-11-02T14:57:49;3.78;;;0.90;;
70725;SDS011;58304;53.104;6.022;2022-11-02T15:00:35;1.55;;;0.47;;
70725;SDS011;58304;53.104;6.022;2022-11-02T15:03:06;2.28;;;0.50;;
70725;SDS011;58304;53.104;6.022;2022-11-02T15:05:57;4.43;;;0.55;;
70725;SDS011;58304;53.104;6.022;2022-11-02T15:08:26;3.33;;;0.55;;
70725;SDS011;58304;53.104;6.022;2022-11-02T15:10:55;6.75;;;0.80;;
70725;SDS011;58304;53.104;6.022;2022-11-02T15:13:23;7.32;;;0.80;;
70725;SDS011;58304;53.104;6.022;2022-11-02T15:16:13;4.30;;;0.80;;
70725;SDS011;58304;53.104;6.022;2022-11-02T15:18:40;5.05;;;0.70;;
70725;SDS011;58304;53.104;6.022;2022-11-02T15:26:19;7.10;;;1.10;;
70725;SDS011;58304;53.104;6.022;2022-11-02T15:28:50;2.33;;;0.88;;
70725;SDS011;58304;53.104;6.022;2022-11-02T15:31:20;5.57;;;0.90;;
70725;SDS011;58304;53.104;6.022;2022-11-02T15:33:48;6.45;;;0.95;;
70725;SDS011;58304;53.104;6.022;2022-11-02T15:36:33;5.95;;;0.93;;
70725;SDS011;58304;53.104;6.022;2022-11-02T15:39:02;4.88;;;1.00;;
70725;SDS011;58304;53.104;6.022;2022-11-02T15:44:10;5.55;;;1.35;;
70725;SDS011;58304;53.104;6.022;2022-11-02T15:49:32;5.57;;;1.15;;
70725;SDS011;58304;53.104;6.022;2022-11-02T15:52:28;4.60;;;1.08;;
70725;SDS011;58304;53.104;6.022;2022-11-02T15:57:49;4.22;;;0.88;;
70725;SDS011;58304;53.104;6.022;2022-11-02T16:00:23;8.02;;;1.25;;
70725;SDS011;58304;53.104;6.022;2022-11-02T16:02:57;4.80;;;0.90;;
70725;SDS011;58304;53.104;6.022;2022-11-02T16:05:26;3.63;;;0.90;;
70725;SDS011;58304;53.104;6.022;2022-11-02T16:07:56;4.25;;;1.00;;
70725;SDS011;58304;53.104;6.022;2022-11-02T16:10:26;4.70;;;0.93;;
70725;SDS011;58304;53.104;6.022;2022-11-02T16:12:57;6.28;;;0.90;;
70725;SDS011;58304;53.104;6.022;2022-11-02T16:15:38;5.90;;;1.23;;
70725;SDS011;58304;53.104;6.022;2022-11-02T16:18:21;6.47;;;0.95;;
70725;SDS011;58304;53.104;6.022;2022-11-02T16:20:48;5.00;;;1.00;;
70725;SDS011;58304;53.104;6.022;2022-11-02T16:23:19;3.17;;;0.80;;
70725;SDS011;58304;53.104;6.022;2022-11-02T16:25:48;4.60;;;0.80;;
70725;SDS011;58304;53.104;6.022;2022-11-02T16:28:20;6.82;;;1.00;;
70725;SDS011;58304;53.104;6.022;2022-11-02T16:36:06;5.65;;;0.80;;
70725;SDS011;58304;53.104;6.022;2022-11-02T16:38:37;3.50;;;0.90;;
70725;SDS011;58304;53.104;6.022;2022-11-02T16:41:11;5.85;;;1.00;;
70725;SDS011;58304;53.104;6.022;2022-11-02T16:43:43;6.72;;;1.35;;
70725;SDS011;58304;53.104;6.022;2022-11-02T16:46:09;6.53;;;1.40;;
70725;SDS011;58304;53.104;6.022;2022-11-02T16:48:43;6.78;;;1.20;;
70725;SDS011;58304;53.104;6.022;2022-11-02T16:51:27;4.82;;;1.10;;
70725;SDS011;58304;53.104;6.022;2022-11-02T16:53:53;7.72;;;1.35;;
70725;SDS011;58304;53.104;6.022;2022-11-02T16:56:23;3.95;;;0.95;;
70725;SDS011;58304;53.104;6.022;2022-11-02T16:58:56;9.10;;;1.50;;
70725;SDS011;58304;53.104;6.022;2022-11-02T17:01:28;9.55;;;1.58;;
70725;SDS011;58304;53.104;6.022;2022-11-02T17:09:13;5.32;;;1.17;;
70725;SDS011;58304;53.104;6.022;2022-11-02T17:11:52;7.38;;;1.20;;
70725;SDS011;58304;53.104;6.022;2022-11-02T17:14:21;9.52;;;1.63;;
70725;SDS011;58304;53.104;6.022;2022-11-02T17:19:41;8.43;;;1.35;;
70725;SDS011;58304;53.104;6.022;2022-11-02T17:22:27;5.15;;;1.33;;
70725;SDS011;58304;53.104;6.022;2022-11-02T17:25:00;8.02;;;1.42;;
70725;SDS011;58304;53.104;6.022;2022-11-02T17:27:37;8.75;;;1.65;;
70725;SDS011;58304;53.104;6.022;2022-11-02T17:30:04;9.25;;;1.40;;
70725;SDS011;58304;53.104;6.022;2022-11-02T17:32:30;8.10;;;1.55;;
70725;SDS011;58304;53.104;6.022;2022-11-02T17:34:56;7.07;;;1.50;;
70725;SDS011;58304;53.104;6.022;2022-11-02T17:37:29;10.10;;;1.67;;
70725;SDS011;58304;53.104;6.022;2022-11-02T17:39:58;8.02;;;1.73;;
70725;SDS011;58304;53.104;6.022;2022-11-02T17:42:25;7.07;;;1.55;;
70725;SDS011;58304;53.104;6.022;2022-11-02T17:48:02;8.05;;;1.20;;
70725;SDS011;58304;53.104;6.022;2022-11-02T17:50:34;9.50;;;1.60;;
70725;SDS011;58304;53.104;6.022;2022-11-02T17:53:02;6.82;;;1.65;;
70725;SDS011;58304;53.104;6.022;2022-11-02T17:55:29;10.50;;;1.80;;
70725;SDS011;58304;53.104;6.022;2022-11-02T17:57:56;7.15;;;1.60;;
70725;SDS011;58304;53.104;6.022;2022-11-02T18:00:23;9.98;;;1.50;;
70725;SDS011;58304;53.104;6.022;2022-11-02T18:02:52;9.70;;;1.80;;
70725;SDS011;58304;53.104;6.022;2022-11-02T18:07:45;8.18;;;1.60;;
70725;SDS011;58304;53.104;6.022;2022-11-02T18:10:10;7.97;;;1.50;;
70725;SDS011;58304;53.104;6.022;2022-11-02T18:12:36;8.05;;;1.77;;
70725;SDS011;58304;53.104;6.022;2022-11-02T18:15:02;9.20;;;1.63;;
70725;SDS011;58304;53.104;6.022;2022-11-02T18:17:28;4.95;;;1.55;;
70725;SDS011;58304;53.104;6.022;2022-11-02T18:19:53;7.35;;;1.50;;
70725;SDS011;58304;53.104;6.022;2022-11-02T18:22:19;8.35;;;1.75;;